Time;durP1;ratioP1;P1;durP2;ratioP2;P2;SDS_P1;SDS_P2;PMS_P1;PMS_P2;Temp;Humidity;BMP_temperature;BMP_pressure;BME280_temperature;BME280_humidity;BME280_pressure;Samples;Min_cycle;Max_cycle;Signal;HPM_P1;HPM_P2
2021/01/16 00:00:48;;;;;;;8.98;6.15;;;;;;;;;;5096787;28;20130;-77
2021/01/16 00:03:15;;;;;;;8.68;5.95;;;;;;;;;;5096240;28;20055;-77
2021/01/16 00:05:42;;;;;;;8.38;5.75;;;;;;;;;;5096709;28;20036;-77
2021/01/16 00:08:12;;;;;;;9.32;6.63;;;;;;;;;;5096358;28;20067;-76
2021/01/16 00:10:42;;;;;;;10.80;6.57;;;;;;;;;;5096611;28;20481;-77
2021/01/16 00:13:15;;;;;;;7.07;5.10;;;;;;;;;;5096401;28;20462;-77
2021/01/16 00:15:41;;;;;;;8.30;6.13;;;;;;;;;;5096458;28;20028;-77
2021/01/16 00:18:09;;;;;;;10.43;6.30;;;;;;;;;;5095974;28;20036;-77
2021/01/16 00:20:37;;;;;;;10.35;6.20;;;;;;;;;;5096544;28;20036;-77
2021/01/16 00:23:03;;;;;;;11.35;6.72;;;;;;;;;;5096236;28;20465;-77
2021/01/16 00:25:28;;;;;;;9.10;5.55;;;;;;;;;;5096010;28;20035;-77
2021/01/16 00:27:54;;;;;;;7.68;5.70;;;;;;;;;;5096230;28;20147;-77
2021/01/16 00:30:23;;;;;;;8.60;5.35;;;;;;;;;;5096136;28;20482;-77
2021/01/16 00:32:49;;;;;;;10.73;6.90;;;;;;;;;;5095890;28;20090;-77
2021/01/16 00:35:17;;;;;;;9.85;5.38;;;;;;;;;;5094760;28;20374;-77
2021/01/16 00:37:44;;;;;;;7.45;5.82;;;;;;;;;;5095997;28;20044;-77
2021/01/16 00:40:12;;;;;;;7.88;5.43;;;;;;;;;;5096163;28;20062;-77
2021/01/16 00:42:45;;;;;;;9.48;6.20;;;;;;;;;;5095934;28;20039;-77
2021/01/16 00:45:11;;;;;;;7.45;5.03;;;;;;;;;;5094502;28;20048;-77
2021/01/16 00:47:38;;;;;;;8.45;5.22;;;;;;;;;;5095383;28;20424;-77
2021/01/16 00:50:05;;;;;;;6.13;4.35;;;;;;;;;;5094218;28;20028;-77
2021/01/16 00:52:30;;;;;;;7.85;4.45;;;;;;;;;;5095662;28;20032;-77
2021/01/16 00:54:56;;;;;;;9.63;5.15;;;;;;;;;;5094703;28;20434;-77
2021/01/16 00:57:23;;;;;;;6.30;4.57;;;;;;;;;;5094242;28;20077;-77
2021/01/16 00:59:49;;;;;;;7.93;4.85;;;;;;;;;;5094290;28;20044;-77
2021/01/16 01:02:14;;;;;;;8.38;5.65;;;;;;;;;;5093843;28;20060;-77
2021/01/16 01:04:39;;;;;;;8.70;4.35;;;;;;;;;;5095389;28;20032;-77
2021/01/16 01:07:09;;;;;;;7.00;4.32;;;;;;;;;;5095563;28;20020;-77
2021/01/16 01:09:35;;;;;;;7.50;4.50;;;;;;;;;;5094323;28;20206;-77
2021/01/16 01:12:00;;;;;;;7.55;4.32;;;;;;;;;;5095295;28;20119;-77
2021/01/16 01:14:25;;;;;;;6.57;4.25;;;;;;;;;;5095404;28;20123;-77
2021/01/16 01:16:51;;;;;;;9.73;4.60;;;;;;;;;;5095357;28;20035;-77
2021/01/16 01:19:16;;;;;;;5.32;4.15;;;;;;;;;;5095013;28;20100;-77
2021/01/16 01:21:41;;;;;;;6.88;4.55;;;;;;;;;;5095061;28;20040;-77
2021/01/16 01:24:07;;;;;;;5.47;3.70;;;;;;;;;;5095171;28;20085;-77
2021/01/16 01:26:36;;;;;;;10.52;3.85;;;;;;;;;;5095176;28;20041;-77
2021/01/16 01:29:02;;;;;;;5.55;3.75;;;;;;;;;;5094960;28;20028;-77
2021/01/16 01:31:27;;;;;;;5.60;3.72;;;;;;;;;;5094665;28;20159;-77
2021/01/16 01:33:54;;;;;;;5.97;3.90;;;;;;;;;;5094623;28;20439;-77
2021/01/16 01:36:20;;;;;;;4.88;3.72;;;;;;;;;;5095257;28;20046;-77
2021/01/16 01:38:45;;;;;;;8.23;4.28;;;;;;;;;;5094475;28;20110;-77
2021/01/16 01:41:11;;;;;;;7.15;3.70;;;;;;;;;;5094870;28;20481;-77
2021/01/16 01:43:36;;;;;;;7.15;3.97;;;;;;;;;;5094699;28;20040;-77
2021/01/16 01:46:02;;;;;;;6.20;3.88;;;;;;;;;;5094485;28;20048;-77
2021/01/16 01:48:28;;;;;;;5.22;3.65;;;;;;;;;;5094388;28;20036;-77
2021/01/16 01:50:54;;;;;;;5.95;4.40;;;;;;;;;;5094331;28;20382;-77
2021/01/16 01:53:20;;;;;;;8.90;5.15;;;;;;;;;;5094590;28;20221;-77
2021/01/16 01:55:52;;;;;;;6.82;4.18;;;;;;;;;;5093228;28;20114;-77
2021/01/16 01:58:17;;;;;;;7.15;3.90;;;;;;;;;;5094401;28;20028;-77
2021/01/16 02:00:44;;;;;;;5.28;3.65;;;;;;;;;;5094266;28;20446;-77
2021/01/16 02:03:11;;;;;;;5.63;3.90;;;;;;;;;;5094291;28;20047;-77
2021/01/16 02:05:37;;;;;;;6.07;3.88;;;;;;;;;;5094300;28;20059;-77
2021/01/16 02:08:02;;;;;;;7.53;3.72;;;;;;;;;;5094208;28;20584;-77
2021/01/16 02:10:28;;;;;;;4.85;3.47;;;;;;;;;;5092749;28;20040;-77
2021/01/16 02:12:57;;;;;;;5.35;3.63;;;;;;;;;;5094251;28;20040;-77
2021/01/16 02:15:25;;;;;;;5.88;3.58;;;;;;;;;;5094267;28;20122;-77
2021/01/16 02:17:56;;;;;;;5.15;3.45;;;;;;;;;;5093971;28;20049;-77
2021/01/16 02:20:27;;;;;;;5.80;3.65;;;;;;;;;;5094157;28;20036;-77
2021/01/16 02:23:08;;;;;;;5.40;3.50;;;;;;;;;;5094007;28;20028;-77
2021/01/16 02:25:52;;;;;;;7.95;3.97;;;;;;;;;;5093883;28;20042;-77
2021/01/16 02:28:21;;;;;;;6.40;3.80;;;;;;;;;;5093729;28;20047;-77
2021/01/16 02:30:48;;;;;;;8.50;3.22;;;;;;;;;;5093708;28;20040;-77
2021/01/16 02:33:19;;;;;;;5.97;3.60;;;;;;;;;;5093552;28;20427;-77
2021/01/16 02:36:13;;;;;;;8.93;4.50;;;;;;;;;;5093892;28;20470;-77
2021/01/16 02:39:00;;;;;;;6.15;4.03;;;;;;;;;;5085916;28;20043;-77
2021/01/16 02:41:35;;;;;;;5.82;3.65;;;;;;;;;;5093301;28;20085;-77
2021/01/16 02:44:42;;;;;;;8.00;3.83;;;;;;;;;;5093375;28;20485;-77
2021/01/16 02:47:23;;;;;;;4.55;3.22;;;;;;;;;;5071386;28;20052;-77
2021/01/16 02:49:52;;;;;;;5.97;3.58;;;;;;;;;;5093408;28;20149;-77
2021/01/16 02:52:22;;;;;;;4.47;3.47;;;;;;;;;;5093717;28;20483;-77
2021/01/16 02:54:48;;;;;;;6.45;3.67;;;;;;;;;;5092215;28;20043;-77
2021/01/16 02:57:15;;;;;;;5.53;3.63;;;;;;;;;;5093456;28;20036;-77
2021/01/16 02:59:43;;;;;;;7.00;4.15;;;;;;;;;;5092782;28;20048;-77
2021/01/16 03:02:11;;;;;;;5.20;3.40;;;;;;;;;;5092290;28;20031;-77
2021/01/16 03:04:37;;;;;;;8.20;5.07;;;;;;;;;;5092952;28;20034;-77
2021/01/16 03:07:05;;;;;;;6.35;4.32;;;;;;;;;;5093444;28;20036;-77
2021/01/16 03:09:32;;;;;;;5.53;3.60;;;;;;;;;;5093486;28;20028;-77
2021/01/16 03:11:58;;;;;;;6.05;3.92;;;;;;;;;;5093047;28;20450;-77
2021/01/16 03:14:27;;;;;;;7.00;4.30;;;;;;;;;;5092561;28;20067;-77
2021/01/16 03:17:05;;;;;;;6.47;3.70;;;;;;;;;;5092189;28;20126;-77
2021/01/16 03:19:33;;;;;;;6.00;4.20;;;;;;;;;;5092120;28;20405;-77
2021/01/16 03:21:58;;;;;;;5.72;4.07;;;;;;;;;;5092065;28;20030;-77
2021/01/16 03:24:27;;;;;;;7.03;3.75;;;;;;;;;;5092512;28;20036;-77
2021/01/16 03:26:52;;;;;;;6.07;4.03;;;;;;;;;;5091677;28;20032;-77
2021/01/16 03:29:17;;;;;;;7.80;4.07;;;;;;;;;;5093003;28;20085;-77
2021/01/16 03:31:43;;;;;;;7.28;3.90;;;;;;;;;;5093266;28;20032;-77
2021/01/16 03:34:08;;;;;;;5.38;3.78;;;;;;;;;;5092843;28;20044;-77
2021/01/16 03:36:33;;;;;;;6.43;4.07;;;;;;;;;;5092843;28;20119;-77
2021/01/16 03:38:59;;;;;;;7.00;3.95;;;;;;;;;;5091727;28;20193;-77
2021/01/16 03:41:24;;;;;;;6.35;4.32;;;;;;;;;;5093317;28;20040;-77
2021/01/16 03:43:49;;;;;;;6.45;4.20;;;;;;;;;;5092918;28;20039;-77
2021/01/16 03:46:15;;;;;;;5.40;3.85;;;;;;;;;;5093001;28;20131;-77
2021/01/16 03:48:41;;;;;;;6.70;4.22;;;;;;;;;;5092634;28;20119;-77
2021/01/16 03:51:06;;;;;;;7.63;5.22;;;;;;;;;;5091495;28;20032;-77
2021/01/16 03:53:31;;;;;;;6.90;4.40;;;;;;;;;;5092954;28;20040;-77
2021/01/16 03:55:57;;;;;;;7.78;4.43;;;;;;;;;;5092973;28;20085;-77
2021/01/16 03:58:22;;;;;;;7.35;4.75;;;;;;;;;;5092712;28;20036;-77
2021/01/16 04:00:48;;;;;;;6.25;4.35;;;;;;;;;;5092675;28;20040;-77
2021/01/16 04:03:13;;;;;;;7.55;4.72;;;;;;;;;;5092703;28;20043;-77
2021/01/16 04:05:39;;;;;;;6.68;4.63;;;;;;;;;;5092912;28;20036;-77
2021/01/16 04:08:04;;;;;;;7.70;4.95;;;;;;;;;;5074571;28;20040;-77
2021/01/16 04:10:30;;;;;;;5.70;4.28;;;;;;;;;;5094830;28;20032;-77
2021/01/16 04:12:55;;;;;;;7.03;4.63;;;;;;;;;;5096661;28;20043;-77
2021/01/16 04:15:20;;;;;;;7.03;4.50;;;;;;;;;;5096310;28;20093;-77
2021/01/16 04:17:46;;;;;;;6.43;4.47;;;;;;;;;;5096473;28;20020;-77
2021/01/16 04:20:11;;;;;;;6.68;4.50;;;;;;;;;;5096215;28;20036;-77
2021/01/16 04:22:38;;;;;;;6.70;4.82;;;;;;;;;;5096379;28;20111;-77
2021/01/16 04:25:07;;;;;;;8.52;4.72;;;;;;;;;;5095110;28;20039;-77
2021/01/16 04:27:33;;;;;;;9.27;5.60;;;;;;;;;;5096276;28;20039;-77
2021/01/16 04:29:59;;;;;;;10.55;5.60;;;;;;;;;;5096178;28;20048;-77
2021/01/16 04:32:25;;;;;;;8.80;4.18;;;;;;;;;;5096333;28;20059;-77
2021/01/16 04:34:51;;;;;;;7.78;4.47;;;;;;;;;;5095663;28;20379;-77
2021/01/16 04:37:16;;;;;;;8.00;5.22;;;;;;;;;;5096028;28;20040;-77
2021/01/16 04:39:41;;;;;;;8.95;5.43;;;;;;;;;;5096071;28;20085;-77
2021/01/16 04:42:10;;;;;;;8.18;5.00;;;;;;;;;;5096149;28;20032;-77
2021/01/16 04:44:38;;;;;;;8.57;5.30;;;;;;;;;;5095569;28;20044;-77
2021/01/16 04:47:04;;;;;;;9.35;4.97;;;;;;;;;;5096056;28;20043;-77
2021/01/16 04:49:31;;;;;;;8.45;5.22;;;;;;;;;;5095575;28;20040;-77
2021/01/16 04:51:57;;;;;;;9.35;6.32;;;;;;;;;;5095894;28;20465;-77
2021/01/16 04:54:23;;;;;;;9.70;6.30;;;;;;;;;;5095800;28;20474;-77
2021/01/16 04:56:48;;;;;;;8.85;5.45;;;;;;;;;;5095898;28;20036;-77
2021/01/16 04:59:15;;;;;;;8.45;5.50;;;;;;;;;;5095511;27;20036;-77
2021/01/16 05:01:41;;;;;;;9.50;6.00;;;;;;;;;;5095674;28;20067;-77
2021/01/16 05:04:08;;;;;;;7.50;4.70;;;;;;;;;;5095191;28;20043;-77
2021/01/16 05:06:39;;;;;;;10.07;5.53;;;;;;;;;;5095473;28;20089;-77
2021/01/16 05:09:06;;;;;;;7.22;5.35;;;;;;;;;;5095315;28;20117;-77
2021/01/16 05:11:43;;;;;;;8.10;5.05;;;;;;;;;;5095069;28;20177;-77
2021/01/16 05:14:18;;;;;;;8.23;5.35;;;;;;;;;;5095397;28;20043;-77
2021/01/16 05:16:58;;;;;;;9.68;5.50;;;;;;;;;;5095406;28;20028;-77
2021/01/16 05:19:32;;;;;;;7.00;4.65;;;;;;;;;;5093907;28;20114;-77
2021/01/16 05:21:58;;;;;;;7.88;4.82;;;;;;;;;;5094286;28;20028;-77
2021/01/16 05:24:24;;;;;;;8.73;5.00;;;;;;;;;;5095052;28;20509;-77
2021/01/16 05:27:20;;;;;;;8.35;5.20;;;;;;;;;;5095242;28;20101;-77
2021/01/16 05:29:46;;;;;;;8.63;5.85;;;;;;;;;;5078223;28;20040;-77
2021/01/16 05:32:13;;;;;;;10.30;6.00;;;;;;;;;;5094985;28;20359;-77
2021/01/16 05:34:39;;;;;;;11.30;6.30;;;;;;;;;;5094705;28;20397;-77
2021/01/16 05:37:04;;;;;;;8.85;5.68;;;;;;;;;;5094715;28;20051;-77
2021/01/16 05:39:33;;;;;;;8.15;5.07;;;;;;;;;;5094937;28;20052;-77
2021/01/16 05:42:06;;;;;;;7.78;5.15;;;;;;;;;;5094587;28;20024;-77
2021/01/16 05:44:33;;;;;;;8.25;5.70;;;;;;;;;;5094852;28;20048;-77
2021/01/16 05:46:58;;;;;;;9.80;6.00;;;;;;;;;;5094707;28;20418;-77
2021/01/16 05:49:25;;;;;;;8.18;5.72;;;;;;;;;;5094478;28;20052;-77
2021/01/16 05:51:51;;;;;;;10.10;5.95;;;;;;;;;;5094184;28;20063;-77
2021/01/16 05:54:18;;;;;;;13.50;6.78;;;;;;;;;;5094464;28;20496;-77
2021/01/16 05:56:44;;;;;;;10.20;5.90;;;;;;;;;;5094665;28;20070;-77
2021/01/16 05:59:15;;;;;;;14.52;6.35;;;;;;;;;;5094694;28;20032;-77
2021/01/16 06:01:42;;;;;;;8.95;5.82;;;;;;;;;;5094278;28;20036;-76
2021/01/16 06:04:14;;;;;;;10.15;6.70;;;;;;;;;;5094057;28;20028;-77
2021/01/16 06:06:40;;;;;;;10.05;6.30;;;;;;;;;;5094229;28;20036;-77
2021/01/16 06:09:19;;;;;;;9.82;6.03;;;;;;;;;;5094425;28;20035;-77
2021/01/16 06:11:49;;;;;;;9.88;6.68;;;;;;;;;;5098445;28;20031;-77
2021/01/16 06:14:15;;;;;;;11.55;6.57;;;;;;;;;;5114397;28;20032;-76
2021/01/16 06:16:53;;;;;;;9.73;6.05;;;;;;;;;;5114628;28;20027;-77
2021/01/16 06:19:21;;;;;;;9.93;6.30;;;;;;;;;;5113983;28;20054;-77
2021/01/16 06:21:47;;;;;;;10.05;5.78;;;;;;;;;;5114586;28;20024;-77
2021/01/16 06:24:18;;;;;;;9.05;6.05;;;;;;;;;;5114255;28;20035;-77
2021/01/16 06:26:50;;;;;;;8.68;5.50;;;;;;;;;;5114485;28;20046;-77
2021/01/16 06:29:29;;;;;;;8.57;6.28;;;;;;;;;;5113898;28;20058;-77
2021/01/16 06:32:06;;;;;;;9.68;6.38;;;;;;;;;;5113993;27;20032;-77
2021/01/16 06:34:34;;;;;;;13.18;6.57;;;;;;;;;;5114257;28;20126;-77
2021/01/16 06:37:14;;;;;;;12.80;7.05;;;;;;;;;;5114093;28;20036;-77
2021/01/16 06:39:47;;;;;;;11.15;6.40;;;;;;;;;;5114247;28;20034;-77
2021/01/16 06:42:21;;;;;;;9.07;5.63;;;;;;;;;;5105929;28;20032;-77
2021/01/16 06:44:46;;;;;;;8.70;5.80;;;;;;;;;;5093646;28;20047;-77
2021/01/16 06:47:12;;;;;;;9.55;6.15;;;;;;;;;;5093523;28;20039;-77
2021/01/16 06:49:37;;;;;;;11.05;7.00;;;;;;;;;;5093365;28;20453;-77
2021/01/16 06:52:05;;;;;;;9.13;5.80;;;;;;;;;;5093546;28;20043;-77
2021/01/16 06:54:35;;;;;;;9.93;6.00;;;;;;;;;;5093259;28;20449;-77
2021/01/16 06:57:06;;;;;;;9.02;6.40;;;;;;;;;;5093655;28;20032;-77
2021/01/16 06:59:33;;;;;;;11.50;6.50;;;;;;;;;;5093462;28;20519;-77
2021/01/16 07:01:59;;;;;;;9.13;5.88;;;;;;;;;;5093287;28;20376;-77
2021/01/16 07:04:28;;;;;;;9.77;6.43;;;;;;;;;;5093048;28;20036;-77
2021/01/16 07:06:55;;;;;;;10.70;6.78;;;;;;;;;;5093314;28;20033;-77
2021/01/16 07:09:24;;;;;;;11.80;6.80;;;;;;;;;;5092143;28;20038;-77
2021/01/16 07:11:52;;;;;;;8.55;6.00;;;;;;;;;;5093279;28;20041;-77
2021/01/16 07:14:19;;;;;;;11.77;7.25;;;;;;;;;;5091332;28;20051;-75
2021/01/16 07:16:47;;;;;;;11.82;7.28;;;;;;;;;;5092727;28;20036;-77
2021/01/16 07:19:23;;;;;;;10.60;6.95;;;;;;;;;;5092299;28;20488;-76
2021/01/16 07:21:49;;;;;;;9.63;6.72;;;;;;;;;;5092449;28;20043;-75
2021/01/16 07:24:16;;;;;;;10.15;7.00;;;;;;;;;;5092328;28;20028;-75
2021/01/16 07:26:45;;;;;;;12.27;7.47;;;;;;;;;;5092010;28;20036;-75
2021/01/16 07:29:11;;;;;;;9.80;6.65;;;;;;;;;;5092730;28;20075;-76
2021/01/16 07:31:38;;;;;;;17.13;8.02;;;;;;;;;;5091644;28;20066;-76
2021/01/16 07:34:07;;;;;;;12.43;7.22;;;;;;;;;;5092938;28;20040;-76
2021/01/16 07:36:34;;;;;;;10.70;7.05;;;;;;;;;;5093335;28;20081;-76
2021/01/16 07:39:11;;;;;;;11.68;7.50;;;;;;;;;;5092942;28;20115;-74
2021/01/16 07:41:38;;;;;;;9.70;6.78;;;;;;;;;;5092159;28;20339;-74
2021/01/16 07:44:09;;;;;;;12.05;8.05;;;;;;;;;;5092729;28;20051;-74
2021/01/16 07:46:39;;;;;;;11.68;7.03;;;;;;;;;;5096970;28;20539;-74
2021/01/16 07:49:06;;;;;;;11.88;7.85;;;;;;;;;;5096781;28;20556;-74
2021/01/16 07:51:32;;;;;;;12.75;8.02;;;;;;;;;;5096949;28;20032;-75
2021/01/16 07:54:03;;;;;;;13.57;9.30;;;;;;;;;;5095737;28;20032;-73
2021/01/16 07:56:43;;;;;;;13.90;8.70;;;;;;;;;;5097064;28;20047;-73
2021/01/16 07:59:23;;;;;;;14.68;8.60;;;;;;;;;;5096926;28;20032;-74
2021/01/16 08:02:17;;;;;;;12.73;8.20;;;;;;;;;;5096388;28;20093;-73
2021/01/16 08:05:04;;;;;;;13.48;7.97;;;;;;;;;;5096256;28;20125;-74
2021/01/16 08:08:08;;;;;;;12.57;8.13;;;;;;;;;;5095556;28;20040;-74
2021/01/16 08:10:34;;;;;;;13.80;8.32;;;;;;;;;;5096470;28;20039;-74
2021/01/16 08:13:01;;;;;;;17.02;9.52;;;;;;;;;;5096437;28;20050;-74
2021/01/16 08:15:30;;;;;;;16.80;9.10;;;;;;;;;;5096488;28;20374;-74
2021/01/16 08:17:59;;;;;;;15.25;9.93;;;;;;;;;;5096340;28;20046;-74
2021/01/16 08:20:29;;;;;;;14.38;8.95;;;;;;;;;;5096140;28;20079;-74
2021/01/16 08:22:56;;;;;;;12.38;8.40;;;;;;;;;;5096225;28;20034;-74
2021/01/16 08:25:27;;;;;;;14.77;9.23;;;;;;;;;;5094962;28;20092;-74
2021/01/16 08:27:58;;;;;;;17.50;12.15;;;;;;;;;;5096438;28;20158;-74
2021/01/16 08:30:25;;;;;;;24.95;15.02;;;;;;;;;;5096164;28;20377;-74
2021/01/16 08:33:07;;;;;;;23.02;14.63;;;;;;;;;;5096107;28;20123;-74
2021/01/16 08:35:39;;;;;;;22.02;13.88;;;;;;;;;;5096086;28;20039;-74
2021/01/16 08:38:16;;;;;;;21.33;13.48;;;;;;;;;;5096118;28;20044;-74
2021/01/16 08:41:02;;;;;;;18.60;12.00;;;;;;;;;;5095254;28;20035;-74
2021/01/16 08:43:32;;;;;;;17.63;11.23;;;;;;;;;;5095959;28;20043;-74
2021/01/16 08:46:11;;;;;;;16.63;10.45;;;;;;;;;;5094556;28;20084;-74
2021/01/16 08:48:42;;;;;;;20.20;11.93;;;;;;;;;;5095705;28;20185;-75
2021/01/16 08:51:30;;;;;;;18.48;10.75;;;;;;;;;;5095811;28;20040;-76
2021/01/16 08:54:11;;;;;;;17.77;10.85;;;;;;;;;;5095845;28;20036;-75
2021/01/16 08:56:38;;;;;;;14.65;10.02;;;;;;;;;;5094360;28;20089;-75
2021/01/16 08:59:13;;;;;;;16.95;10.50;;;;;;;;;;5095446;28;20118;-76
2021/01/16 09:01:39;;;;;;;16.42;10.63;;;;;;;;;;5095389;28;20058;-76
2021/01/16 09:04:21;;;;;;;15.90;10.90;;;;;;;;;;5095478;28;20090;-75
2021/01/16 09:06:48;;;;;;;16.05;10.35;;;;;;;;;;5094332;28;20073;-75
2021/01/16 09:09:22;;;;;;;15.15;10.20;;;;;;;;;;5095439;28;20046;-75
2021/01/16 09:12:05;;;;;;;19.15;10.68;;;;;;;;;;5095307;28;20139;-75
2021/01/16 09:14:31;;;;;;;20.90;12.13;;;;;;;;;;5095464;28;20103;-75
2021/01/16 09:16:57;;;;;;;22.38;12.65;;;;;;;;;;5095126;28;20047;-75
2021/01/16 09:19:29;;;;;;;19.55;12.10;;;;;;;;;;5095349;28;20435;-78
2021/01/16 09:22:20;;;;;;;20.85;12.52;;;;;;;;;;5096295;28;20032;-76
2021/01/16 09:24:46;;;;;;;20.33;12.02;;;;;;;;;;5095274;28;20089;-74
2021/01/16 09:27:31;;;;;;;23.00;13.30;;;;;;;;;;5095061;28;20040;-75
2021/01/16 09:29:57;;;;;;;18.88;12.07;;;;;;;;;;5094413;28;20101;-75
2021/01/16 09:32:35;;;;;;;17.35;12.27;;;;;;;;;;5094895;28;20054;-75
2021/01/16 09:35:01;;;;;;;19.90;12.07;;;;;;;;;;5094580;28;20420;-75
2021/01/16 09:37:29;;;;;;;21.58;12.50;;;;;;;;;;5094932;28;20123;-75
2021/01/16 09:40:11;;;;;;;20.90;13.02;;;;;;;;;;5093834;28;20407;-75
2021/01/16 09:42:47;;;;;;;20.40;12.07;;;;;;;;;;5094742;28;20039;-74
2021/01/16 09:45:12;;;;;;;;;;;;;;;;;;5095323;28;20413;-74
2021/01/16 09:47:49;;;;;;;22.80;13.03;;;;;;;;;;5094656;28;19912;-74
2021/01/16 09:50:17;;;;;;;21.00;12.10;;;;;;;;;;5094427;28;20046;-75
2021/01/16 09:52:55;;;;;;;22.38;12.63;;;;;;;;;;5093616;28;20028;-74
2021/01/16 09:55:32;;;;;;;25.48;13.50;;;;;;;;;;5094844;28;20123;-74
2021/01/16 09:57:59;;;;;;;22.60;12.65;;;;;;;;;;5094804;28;20438;-75
2021/01/16 10:00:30;;;;;;;20.27;12.57;;;;;;;;;;5094464;28;20039;-76
2021/01/16 10:03:04;;;;;;;23.90;13.60;;;;;;;;;;5093670;28;20027;-75
2021/01/16 10:05:32;;;;;;;20.88;13.23;;;;;;;;;;5094258;28;20043;-77
2021/01/16 10:07:58;;;;;;;19.60;12.23;;;;;;;;;;5094203;28;20039;-76
2021/01/16 10:10:24;;;;;;;18.40;11.63;;;;;;;;;;5093254;28;20040;-76
2021/01/16 10:12:56;;;;;;;22.35;12.48;;;;;;;;;;5093910;28;20046;-76
2021/01/16 10:15:27;;;;;;;19.38;11.35;;;;;;;;;;5094336;28;20032;-76
2021/01/16 10:17:54;;;;;;;17.50;11.73;;;;;;;;;;5094177;28;20527;-76
2021/01/16 10:20:20;;;;;;;20.35;12.25;;;;;;;;;;5094037;28;20031;-76
2021/01/16 10:22:53;;;;;;;18.63;11.57;;;;;;;;;;5093080;28;20100;-76
2021/01/16 10:25:20;;;;;;;18.20;11.98;;;;;;;;;;5093145;28;20046;-76
2021/01/16 10:27:47;;;;;;;20.45;10.88;;;;;;;;;;5093989;28;20058;-76
2021/01/16 10:30:18;;;;;;;19.77;12.07;;;;;;;;;;5093927;28;20031;-76
2021/01/16 10:32:43;;;;;;;22.95;13.40;;;;;;;;;;5092598;28;20410;-75
2021/01/16 10:35:16;;;;;;;18.48;11.80;;;;;;;;;;5093644;28;20178;-76
2021/01/16 10:37:42;;;;;;;18.20;12.25;;;;;;;;;;5094010;28;20047;-76
2021/01/16 10:40:08;;;;;;;19.02;11.38;;;;;;;;;;5093941;28;20032;-77
2021/01/16 10:42:41;;;;;;;18.02;11.45;;;;;;;;;;5092627;28;20032;-76
2021/01/16 10:45:08;;;;;;;19.38;12.07;;;;;;;;;;5093591;28;20122;-76
2021/01/16 10:47:35;;;;;;;20.42;10.95;;;;;;;;;;5092655;28;20388;-76
2021/01/16 10:50:12;;;;;;;18.85;11.75;;;;;;;;;;5092222;28;20042;-77
2021/01/16 10:52:39;;;;;;;20.75;12.63;;;;;;;;;;5092021;28;20032;-77
2021/01/16 10:55:12;;;;;;;18.25;10.57;;;;;;;;;;5093566;28;20097;-76
2021/01/16 10:57:46;;;;;;;17.27;11.15;;;;;;;;;;5073691;28;20062;-75
2021/01/16 11:00:14;;;;;;;18.85;12.18;;;;;;;;;;5073344;28;20433;-76
2021/01/16 11:02:44;;;;;;;22.70;13.45;;;;;;;;;;5073247;28;20036;-76
2021/01/16 11:05:16;;;;;;;20.27;11.10;;;;;;;;;;5072819;28;20082;-76
2021/01/16 11:07:46;;;;;;;21.10;12.43;;;;;;;;;;5073161;28;20037;-76
2021/01/16 11:10:13;;;;;;;20.50;12.15;;;;;;;;;;5073469;28;20032;-74
2021/01/16 11:12:43;;;;;;;17.33;11.23;;;;;;;;;;5073431;28;20076;-75
2021/01/16 11:15:30;;;;;;;18.52;11.05;;;;;;;;;;5073284;28;20036;-75
2021/01/16 11:17:58;;;;;;;18.75;11.60;;;;;;;;;;5072983;28;20036;-73
2021/01/16 11:20:34;;;;;;;19.45;11.95;;;;;;;;;;5071955;28;20442;-75
2021/01/16 11:23:23;;;;;;;21.23;11.98;;;;;;;;;;5093335;28;20478;-75
2021/01/16 11:25:50;;;;;;;20.77;11.88;;;;;;;;;;5092023;28;20551;-77
2021/01/16 11:28:26;;;;;;;18.58;12.18;;;;;;;;;;5093457;28;20486;-74
2021/01/16 11:31:09;;;;;;;;;;;;;;;;;;5092402;28;20036;-74
2021/01/16 11:33:35;;;;;;;19.17;10.80;;;;;;;;;;5093351;28;19963;-74
2021/01/16 11:36:03;;;;;;;17.67;9.52;;;;;;;;;;5092886;28;20468;-74
2021/01/16 11:38:38;;;;;;;19.92;12.05;;;;;;;;;;5093110;28;20386;-74
2021/01/16 11:41:05;;;;;;;22.63;12.13;;;;;;;;;;5091672;28;20441;-74
2021/01/16 11:43:31;;;;;;;19.38;11.65;;;;;;;;;;5093118;28;20490;-76
2021/01/16 11:46:10;;;;;;;17.75;10.32;;;;;;;;;;5093551;28;20044;-77
2021/01/16 11:48:38;;;;;;;18.42;10.98;;;;;;;;;;5091942;28;20044;-76
2021/01/16 11:51:17;;;;;;;17.10;10.98;;;;;;;;;;5092650;28;20107;-75
2021/01/16 11:53:49;;;;;;;15.52;10.55;;;;;;;;;;5092946;28;20036;-76
2021/01/16 11:56:20;;;;;;;24.27;10.75;;;;;;;;;;5092759;28;20064;-77
2021/01/16 11:58:48;;;;;;;15.43;10.45;;;;;;;;;;5092530;28;20050;-76
2021/01/16 12:01:15;;;;;;;18.17;11.13;;;;;;;;;;5091365;28;20099;-76
2021/01/16 12:03:41;;;;;;;17.58;10.55;;;;;;;;;;5092949;28;20036;-76
2021/01/16 12:06:17;;;;;;;17.15;10.98;;;;;;;;;;5092669;28;20034;-76
2021/01/16 12:08:47;;;;;;;15.00;9.95;;;;;;;;;;5091791;28;20043;-75
2021/01/16 12:11:16;;;;;;;17.95;11.00;;;;;;;;;;5092069;28;20040;-75
2021/01/16 12:13:51;;;;;;;17.50;10.43;;;;;;;;;;5091731;28;20044;-75
2021/01/16 12:16:17;;;;;;;17.25;11.00;;;;;;;;;;5092793;28;20066;-74
2021/01/16 12:18:43;;;;;;;14.45;9.52;;;;;;;;;;5091276;28;20039;-75
2021/01/16 12:21:12;;;;;;;14.73;9.35;;;;;;;;;;5092556;28;20036;-74
2021/01/16 12:23:46;;;;;;;17.40;11.18;;;;;;;;;;5092628;28;20480;-76
2021/01/16 12:26:16;;;;;;;15.88;10.35;;;;;;;;;;5092806;28;20044;-76
2021/01/16 12:28:46;;;;;;;18.58;10.43;;;;;;;;;;5092660;28;20071;-76
2021/01/16 12:31:20;;;;;;;17.83;10.63;;;;;;;;;;5094297;28;20040;-76
2021/01/16 12:33:47;;;;;;;16.10;9.85;;;;;;;;;;5094874;28;20454;-76
2021/01/16 12:36:12;;;;;;;17.30;10.63;;;;;;;;;;5095285;28;20032;-75
2021/01/16 12:38:37;;;;;;;18.63;11.70;;;;;;;;;;5095178;28;20477;-76
2021/01/16 12:41:03;;;;;;;15.82;9.45;;;;;;;;;;5096304;28;20593;-75
2021/01/16 12:43:28;;;;;;;17.13;11.10;;;;;;;;;;5095037;28;20028;-75
2021/01/16 12:45:54;;;;;;;18.52;11.48;;;;;;;;;;5096127;28;20059;-76
2021/01/16 12:48:20;;;;;;;19.45;12.43;;;;;;;;;;5096452;28;20393;-76
2021/01/16 12:50:46;;;;;;;21.27;12.57;;;;;;;;;;5095750;28;20127;-76
2021/01/16 12:53:13;;;;;;;19.92;12.20;;;;;;;;;;5094783;28;20146;-75
2021/01/16 12:55:38;;;;;;;17.98;10.88;;;;;;;;;;5095868;28;20056;-74
2021/01/16 12:58:04;;;;;;;18.20;10.32;;;;;;;;;;5095998;28;20116;-73
2021/01/16 13:00:30;;;;;;;17.55;11.00;;;;;;;;;;5095805;28;20078;-75
2021/01/16 13:02:59;;;;;;;18.85;11.10;;;;;;;;;;5094554;28;20454;-75
2021/01/16 13:05:31;;;;;;;17.00;10.95;;;;;;;;;;5095470;28;20039;-75
2021/01/16 13:07:58;;;;;;;15.23;10.00;;;;;;;;;;5095934;28;20397;-75
2021/01/16 13:10:26;;;;;;;17.10;10.30;;;;;;;;;;5094420;28;20043;-75
2021/01/16 13:12:52;;;;;;;18.10;10.48;;;;;;;;;;5094027;28;20039;-75
2021/01/16 13:15:17;;;;;;;15.00;9.70;;;;;;;;;;5094121;28;20028;-75
2021/01/16 13:17:45;;;;;;;14.65;9.70;;;;;;;;;;5095420;28;20428;-75
2021/01/16 13:20:12;;;;;;;15.20;9.60;;;;;;;;;;5095313;28;20486;-75
2021/01/16 13:22:47;;;;;;;14.95;9.93;;;;;;;;;;5095288;28;20093;-75
2021/01/16 13:25:14;;;;;;;15.13;9.40;;;;;;;;;;5093990;28;20148;-75
2021/01/16 13:27:40;;;;;;;16.08;10.52;;;;;;;;;;5095064;28;20031;-75
2021/01/16 13:30:11;;;;;;;15.32;10.00;;;;;;;;;;5092710;28;20046;-75
2021/01/16 13:32:42;;;;;;;16.92;9.45;;;;;;;;;;5094004;28;20043;-75
2021/01/16 13:35:09;;;;;;;16.65;9.95;;;;;;;;;;5094327;28;20027;-75
2021/01/16 13:37:36;;;;;;;16.92;9.73;;;;;;;;;;5094996;28;20036;-75
2021/01/16 13:40:15;;;;;;;16.52;10.80;;;;;;;;;;5094607;28;20044;-75
2021/01/16 13:42:45;;;;;;;17.25;9.35;;;;;;;;;;5094318;28;20028;-75
2021/01/16 13:45:15;;;;;;;17.85;10.70;;;;;;;;;;5094751;28;20047;-75
2021/01/16 13:47:41;;;;;;;16.92;10.10;;;;;;;;;;5093741;28;20040;-76
2021/01/16 13:50:19;;;;;;;17.10;9.93;;;;;;;;;;5094682;28;20413;-75
2021/01/16 13:52:45;;;;;;;15.00;10.05;;;;;;;;;;5094684;28;20040;-75
2021/01/16 13:55:16;;;;;;;16.23;10.02;;;;;;;;;;5093721;28;20032;-75
2021/01/16 13:57:43;;;;;;;15.23;9.63;;;;;;;;;;5094628;28;20036;-75
2021/01/16 14:00:14;;;;;;;14.02;9.02;;;;;;;;;;5093601;28;20098;-74
2021/01/16 14:02:40;;;;;;;14.10;9.93;;;;;;;;;;5094517;28;20111;-75
2021/01/16 14:05:06;;;;;;;17.67;9.95;;;;;;;;;;5093154;28;20127;-75
2021/01/16 14:07:31;;;;;;;16.17;9.82;;;;;;;;;;5093656;28;20473;-74
2021/01/16 14:09:59;;;;;;;12.82;9.10;;;;;;;;;;5094277;28;20048;-73
2021/01/16 14:12:25;;;;;;;17.25;9.95;;;;;;;;;;5094196;28;20107;-73
2021/01/16 14:14:51;;;;;;;17.20;10.50;;;;;;;;;;5093233;28;20554;-73
2021/01/16 14:17:20;;;;;;;17.02;10.63;;;;;;;;;;5094048;28;20467;-73
2021/01/16 14:20:02;;;;;;;18.48;11.13;;;;;;;;;;5093276;28;20032;-73
2021/01/16 14:22:44;;;;;;;21.98;13.40;;;;;;;;;;5093866;28;20032;-74
2021/01/16 14:25:12;;;;;;;20.00;12.10;;;;;;;;;;5097379;28;20042;-73
2021/01/16 14:27:47;;;;;;;15.75;9.73;;;;;;;;;;5116068;28;20051;-75
2021/01/16 14:30:19;;;;;;;14.77;9.35;;;;;;;;;;5107550;28;20032;-74
2021/01/16 14:32:59;;;;;;;13.98;9.43;;;;;;;;;;5095593;28;20043;-76
2021/01/16 14:35:25;;;;;;;16.73;8.90;;;;;;;;;;5076167;28;20062;-74
2021/01/16 14:37:59;;;;;;;12.57;8.73;;;;;;;;;;5094380;28;20024;-76
2021/01/16 14:40:26;;;;;;;13.07;8.80;;;;;;;;;;5093531;28;20146;-75
2021/01/16 14:43:04;;;;;;;15.82;8.93;;;;;;;;;;5097950;28;20054;-83
2021/01/16 14:45:30;;;;;;;13.48;9.10;;;;;;;;;;5101261;28;20052;-83